sensor_id;sensor_type;location;lat;lon;timestamp;P1;durP1;ratioP1;P2;durP2;ratioP2
49051;SDS011;34866;48.670;18.260;2022-08-21T08:44:00;1.50;;;0.70;;
49051;SDS011;34866;48.670;18.260;2022-08-21T08:46:44;4.40;;;0.82;;
49051;SDS011;34866;48.670;18.260;2022-08-21T08:51:47;2.38;;;0.77;;
49051;SDS011;34866;48.670;18.260;2022-08-21T08:54:31;8.65;;;0.80;;
49051;SDS011;34866;48.670;18.260;2022-08-21T10:28:08;3.70;;;1.60;;
49051;SDS011;34866;48.670;18.260;2022-08-21T10:30:49;15.77;;;2.05;;
49051;SDS011;34866;48.670;18.260;2022-08-21T10:33:22;3.50;;;2.20;;
49051;SDS011;34866;48.670;18.260;2022-08-21T10:41:46;3.70;;;1.88;;
49051;SDS011;34866;48.670;18.260;2022-08-21T10:44:34;5.40;;;2.13;;
49051;SDS011;34866;48.670;18.260;2022-08-21T10:47:08;5.82;;;2.00;;
49051;SDS011;34866;48.670;18.260;2022-08-21T10:52:52;3.53;;;1.70;;
49051;SDS011;34866;48.670;18.260;2022-08-21T10:55:32;3.15;;;1.52;;
49051;SDS011;34866;48.670;18.260;2022-08-21T10:58:17;4.30;;;1.92;;
49051;SDS011;34866;48.670;18.260;2022-08-21T11:00:48;3.00;;;1.80;;
49051;SDS011;34866;48.670;18.260;2022-08-21T11:06:05;4.90;;;2.38;;
49051;SDS011;34866;48.670;18.260;2022-08-21T11:08:45;4.53;;;2.15;;
49051;SDS011;34866;48.670;18.260;2022-08-21T11:11:46;4.25;;;2.20;;
49051;SDS011;34866;48.670;18.260;2022-08-21T11:14:55;7.35;;;2.45;;
49051;SDS011;34866;48.670;18.260;2022-08-21T11:17:35;4.53;;;2.10;;
49051;SDS011;34866;48.670;18.260;2022-08-21T11:20:16;5.15;;;2.20;;
49051;SDS011;34866;48.670;18.260;2022-08-21T11:23:00;6.53;;;2.17;;
49051;SDS011;34866;48.670;18.260;2022-08-21T11:25:39;4.55;;;2.60;;
49051;SDS011;34866;48.670;18.260;2022-08-21T11:28:30;5.00;;;2.33;;
49051;SDS011;34866;48.670;18.260;2022-08-21T11:31:24;6.28;;;2.40;;
49051;SDS011;34866;48.670;18.260;2022-08-21T11:50:21;4.25;;;2.20;;
49051;SDS011;34866;48.670;18.260;2022-08-21T11:53:10;5.05;;;2.35;;
49051;SDS011;34866;48.670;18.260;2022-08-21T11:55:44;5.57;;;2.13;;
49051;SDS011;34866;48.670;18.260;2022-08-21T12:00:48;10.50;;;2.17;;
49051;SDS011;34866;48.670;18.260;2022-08-21T12:06:29;7.88;;;2.20;;
49051;SDS011;34866;48.670;18.260;2022-08-21T12:09:03;4.78;;;2.20;;
49051;SDS011;34866;48.670;18.260;2022-08-21T12:11:32;4.05;;;2.00;;
49051;SDS011;34866;48.670;18.260;2022-08-21T12:14:14;4.47;;;1.92;;
49051;SDS011;34866;48.670;18.260;2022-08-21T12:16:45;5.78;;;1.95;;
49051;SDS011;34866;48.670;18.260;2022-08-21T12:19:33;5.43;;;2.08;;
49051;SDS011;34866;48.670;18.260;2022-08-21T12:22:08;4.32;;;2.10;;
49051;SDS011;34866;48.670;18.260;2022-08-21T12:24:40;6.05;;;2.22;;
49051;SDS011;34866;48.670;18.260;2022-08-21T12:29:49;4.70;;;1.92;;
49051;SDS011;34866;48.670;18.260;2022-08-21T12:32:45;4.55;;;2.30;;
49051;SDS011;34866;48.670;18.260;2022-08-21T12:35:21;3.67;;;1.92;;
49051;SDS011;34866;48.670;18.260;2022-08-21T12:43:49;6.72;;;2.40;;
49051;SDS011;34866;48.670;18.260;2022-08-21T12:46:28;8.70;;;2.90;;
49051;SDS011;34866;48.670;18.260;2022-08-21T12:55:40;5.32;;;1.88;;
49051;SDS011;34866;48.670;18.260;2022-08-21T12:58:16;4.55;;;2.13;;
49051;SDS011;34866;48.670;18.260;2022-08-21T13:00:53;4.20;;;2.00;;
49051;SDS011;34866;48.670;18.260;2022-08-21T13:03:45;3.58;;;1.70;;
49051;SDS011;34866;48.670;18.260;2022-08-21T13:06:16;6.75;;;2.08;;
49051;SDS011;34866;48.670;18.260;2022-08-21T13:09:10;6.25;;;1.50;;
49051;SDS011;34866;48.670;18.260;2022-08-21T13:11:39;3.13;;;1.60;;
49051;SDS011;34866;48.670;18.260;2022-08-21T13:14:06;3.60;;;1.67;;
49051;SDS011;34866;48.670;18.260;2022-08-21T13:17:06;3.83;;;1.48;;
49051;SDS011;34866;48.670;18.260;2022-08-21T13:20:23;5.30;;;1.02;;
49051;SDS011;34866;48.670;18.260;2022-08-21T13:22:57;3.05;;;1.25;;
49051;SDS011;34866;48.670;18.260;2022-08-21T13:25:27;3.22;;;1.58;;
49051;SDS011;34866;48.670;18.260;2022-08-21T13:28:16;3.22;;;1.00;;
49051;SDS011;34866;48.670;18.260;2022-08-21T13:30:54;2.72;;;1.10;;
49051;SDS011;34866;48.670;18.260;2022-08-21T13:33:38;6.13;;;1.77;;
49051;SDS011;34866;48.670;18.260;2022-08-21T13:36:24;2.33;;;1.10;;
49051;SDS011;34866;48.670;18.260;2022-08-21T13:39:24;5.97;;;1.20;;
49051;SDS011;34866;48.670;18.260;2022-08-21T13:41:53;2.33;;;1.20;;
49051;SDS011;34866;48.670;18.260;2022-08-21T13:44:45;3.00;;;1.50;;
49051;SDS011;34866;48.670;18.260;2022-08-21T13:47:15;3.17;;;1.83;;
49051;SDS011;34866;48.670;18.260;2022-08-21T13:49:46;2.38;;;1.30;;
49051;SDS011;34866;48.670;18.260;2022-08-21T13:52:23;2.70;;;1.05;;
49051;SDS011;34866;48.670;18.260;2022-08-21T13:55:19;2.38;;;1.00;;
49051;SDS011;34866;48.670;18.260;2022-08-21T13:57:46;2.28;;;1.05;;
49051;SDS011;34866;48.670;18.260;2022-08-21T14:00:25;5.20;;;1.00;;
49051;SDS011;34866;48.670;18.260;2022-08-21T14:02:53;2.10;;;1.10;;
49051;SDS011;34866;48.670;18.260;2022-08-21T14:05:27;2.33;;;1.00;;
49051;SDS011;34866;48.670;18.260;2022-08-21T14:08:15;1.80;;;0.80;;
49051;SDS011;34866;48.670;18.260;2022-08-21T14:11:32;5.63;;;0.70;;
49051;SDS011;34866;48.670;18.260;2022-08-21T14:14:34;2.53;;;0.80;;
49051;SDS011;34866;48.670;18.260;2022-08-21T14:16:58;1.70;;;0.70;;
49051;SDS011;34866;48.670;18.260;2022-08-21T14:19:58;1.63;;;0.60;;
49051;SDS011;34866;48.670;18.260;2022-08-21T14:22:56;1.50;;;0.68;;
49051;SDS011;34866;48.670;18.260;2022-08-21T14:27:52;4.07;;;0.73;;
49051;SDS011;34866;48.670;18.260;2022-08-21T14:31:11;4.57;;;0.98;;
49051;SDS011;34866;48.670;18.260;2022-08-21T14:33:43;3.95;;;0.80;;
49051;SDS011;34866;48.670;18.260;2022-08-21T14:36:11;1.75;;;0.73;;
49051;SDS011;34866;48.670;18.260;2022-08-21T14:41:34;1.48;;;0.60;;
49051;SDS011;34866;48.670;18.260;2022-08-21T14:44:14;2.05;;;0.77;;
49051;SDS011;34866;48.670;18.260;2022-08-21T14:47:05;2.22;;;1.00;;
49051;SDS011;34866;48.670;18.260;2022-08-21T14:50:18;3.15;;;0.68;;
49051;SDS011;34866;48.670;18.260;2022-08-21T14:56:38;0.80;;;0.50;;
49051;SDS011;34866;48.670;18.260;2022-08-21T14:59:31;2.97;;;0.68;;
49051;SDS011;34866;48.670;18.260;2022-08-21T15:02:13;2.38;;;0.88;;
49051;SDS011;34866;48.670;18.260;2022-08-21T15:05:11;2.35;;;0.77;;
49051;SDS011;34866;48.670;18.260;2022-08-21T15:08:05;1.83;;;0.80;;
49051;SDS011;34866;48.670;18.260;2022-08-21T15:13:57;5.68;;;1.02;;
49051;SDS011;34866;48.670;18.260;2022-08-21T15:17:39;1.17;;;0.50;;
49051;SDS011;34866;48.670;18.260;2022-08-21T15:25:23;3.28;;;0.88;;
49051;SDS011;34866;48.670;18.260;2022-08-21T15:28:03;1.95;;;0.85;;
49051;SDS011;34866;48.670;18.260;2022-08-21T15:30:52;2.35;;;0.73;;
49051;SDS011;34866;48.670;18.260;2022-08-21T15:33:27;1.75;;;0.80;;
49051;SDS011;34866;48.670;18.260;2022-08-21T15:39:06;1.70;;;0.82;;
49051;SDS011;34866;48.670;18.260;2022-08-21T15:42:26;6.32;;;0.85;;
49051;SDS011;34866;48.670;18.260;2022-08-21T15:45:12;3.67;;;1.20;;
49051;SDS011;34866;48.670;18.260;2022-08-21T15:48:09;1.23;;;0.63;;
49051;SDS011;34866;48.670;18.260;2022-08-21T15:50:35;3.92;;;1.10;;
49051;SDS011;34866;48.670;18.260;2022-08-21T15:55:48;2.75;;;0.93;;
49051;SDS011;34866;48.670;18.260;2022-08-21T15:58:33;1.48;;;0.73;;
49051;SDS011;34866;48.670;18.260;2022-08-21T16:01:57;1.73;;;0.95;;
49051;SDS011;34866;48.670;18.260;2022-08-21T16:04:24;2.70;;;1.10;;
49051;SDS011;34866;48.670;18.260;2022-08-21T16:06:53;1.15;;;0.60;;
49051;SDS011;34866;48.670;18.260;2022-08-21T16:09:24;2.28;;;0.80;;
49051;SDS011;34866;48.670;18.260;2022-08-21T16:11:50;6.25;;;0.70;;
49051;SDS011;34866;48.670;18.260;2022-08-21T16:14:22;2.70;;;0.75;;
49051;SDS011;34866;48.670;18.260;2022-08-21T16:16:55;2.50;;;0.75;;
49051;SDS011;34866;48.670;18.260;2022-08-21T16:19:22;1.40;;;0.70;;
49051;SDS011;34866;48.670;18.260;2022-08-21T16:21:47;3.50;;;0.90;;
49051;SDS011;34866;48.670;18.260;2022-08-21T16:24:13;1.75;;;0.70;;
49051;SDS011;34866;48.670;18.260;2022-08-21T16:27:21;1.17;;;0.65;;
49051;SDS011;34866;48.670;18.260;2022-08-21T16:29:53;2.72;;;0.90;;
49051;SDS011;34866;48.670;18.260;2022-08-21T16:32:21;2.97;;;0.85;;
49051;SDS011;34866;48.670;18.260;2022-08-21T16:34:54;1.52;;;0.70;;
49051;SDS011;34866;48.670;18.260;2022-08-21T16:37:24;5.65;;;1.00;;
49051;SDS011;34866;48.670;18.260;2022-08-21T16:39:57;3.03;;;0.90;;
49051;SDS011;34866;48.670;18.260;2022-08-21T16:42:43;4.50;;;0.82;;
49051;SDS011;34866;48.670;18.260;2022-08-21T16:48:20;3.05;;;1.08;;
49051;SDS011;34866;48.670;18.260;2022-08-21T16:50:46;3.50;;;0.95;;
49051;SDS011;34866;48.670;18.260;2022-08-21T16:53:31;1.88;;;0.80;;
49051;SDS011;34866;48.670;18.260;2022-08-21T16:56:33;1.90;;;0.90;;
49051;SDS011;34866;48.670;18.260;2022-08-21T16:59:02;2.30;;;1.13;;
49051;SDS011;34866;48.670;18.260;2022-08-21T17:01:51;5.30;;;0.90;;
49051;SDS011;34866;48.670;18.260;2022-08-21T17:04:20;1.67;;;0.75;;
49051;SDS011;34866;48.670;18.260;2022-08-21T17:07:05;7.15;;;1.30;;
49051;SDS011;34866;48.670;18.260;2022-08-21T17:09:33;2.10;;;0.90;;
49051;SDS011;34866;48.670;18.260;2022-08-21T17:12:03;2.42;;;1.00;;
49051;SDS011;34866;48.670;18.260;2022-08-21T17:14:51;2.83;;;1.00;;
49051;SDS011;34866;48.670;18.260;2022-08-21T17:17:46;5.47;;;1.05;;
49051;SDS011;34866;48.670;18.260;2022-08-21T17:20:17;2.35;;;1.20;;
49051;SDS011;34866;48.670;18.260;2022-08-21T17:23:02;3.42;;;1.17;;
49051;SDS011;34866;48.670;18.260;2022-08-21T17:25:52;1.90;;;0.88;;
49051;SDS011;34866;48.670;18.260;2022-08-21T17:28:32;3.03;;;0.88;;
49051;SDS011;34866;48.670;18.260;2022-08-21T17:31:00;2.05;;;0.82;;
49051;SDS011;34866;48.670;18.260;2022-08-21T17:33:30;1.77;;;0.73;;
49051;SDS011;34866;48.670;18.260;2022-08-21T17:36:38;1.63;;;0.80;;
49051;SDS011;34866;48.670;18.260;2022-08-21T17:39:09;3.58;;;0.80;;
49051;SDS011;34866;48.670;18.260;2022-08-21T17:41:58;2.97;;;0.80;;
49051;SDS011;34866;48.670;18.260;2022-08-21T17:44:47;1.60;;;0.80;;
49051;SDS011;34866;48.670;18.260;2022-08-21T17:53:02;1.85;;;0.88;;
49051;SDS011;34866;48.670;18.260;2022-08-21T17:58:41;1.70;;;0.70;;
49051;SDS011;34866;48.670;18.260;2022-08-21T18:01:34;1.80;;;0.75;;
49051;SDS011;34866;48.670;18.260;2022-08-21T18:04:06;2.42;;;1.00;;
49051;SDS011;34866;48.670;18.260;2022-08-21T18:06:33;2.55;;;0.95;;
49051;SDS011;34866;48.670;18.260;2022-08-21T18:09:04;2.25;;;0.77;;
49051;SDS011;34866;48.670;18.260;2022-08-21T18:12:00;2.55;;;1.00;;
49051;SDS011;34866;48.670;18.260;2022-08-21T18:14:56;2.78;;;1.25;;
49051;SDS011;34866;48.670;18.260;2022-08-21T18:17:49;3.53;;;0.95;;
49051;SDS011;34866;48.670;18.260;2022-08-21T18:21:01;1.73;;;0.90;;
49051;SDS011;34866;48.670;18.260;2022-08-21T18:23:50;2.30;;;0.80;;
49051;SDS011;34866;48.670;18.260;2022-08-21T18:26:35;1.83;;;0.70;;
49051;SDS011;34866;48.670;18.260;2022-08-21T18:29:06;2.70;;;0.90;;
49051;SDS011;34866;48.670;18.260;2022-08-21T18:31:39;2.08;;;0.90;;
49051;SDS011;34866;48.670;18.260;2022-08-21T18:37:53;3.20;;;1.55;;
49051;SDS011;34866;48.670;18.260;2022-08-21T18:41:05;4.93;;;1.00;;
49051;SDS011;34866;48.670;18.260;2022-08-21T18:44:15;1.88;;;0.80;;
49051;SDS011;34866;48.670;18.260;2022-08-21T18:47:25;1.63;;;0.75;;
49051;SDS011;34866;48.670;18.260;2022-08-21T18:50:20;2.67;;;0.90;;
49051;SDS011;34866;48.670;18.260;2022-08-21T18:53:12;1.92;;;0.80;;
49051;SDS011;34866;48.670;18.260;2022-08-21T18:56:00;1.65;;;0.77;;
49051;SDS011;34866;48.670;18.260;2022-08-21T19:02:13;1.75;;;0.80;;
49051;SDS011;34866;48.670;18.260;2022-08-21T19:05:08;1.95;;;0.88;;
49051;SDS011;34866;48.670;18.260;2022-08-21T19:09:02;2.47;;;0.80;;
49051;SDS011;34866;48.670;18.260;2022-08-21T19:15:19;2.35;;;0.80;;
49051;SDS011;34866;48.670;18.260;2022-08-21T19:21:20;2.42;;;1.00;;
49051;SDS011;34866;48.670;18.260;2022-08-21T19:28:29;4.43;;;1.05;;
49051;SDS011;34866;48.670;18.260;2022-08-21T19:31:28;1.35;;;0.60;;
49051;SDS011;34866;48.670;18.260;2022-08-21T19:37:48;2.67;;;1.00;;
49051;SDS011;34866;48.670;18.260;2022-08-21T19:40:35;1.63;;;0.70;;
49051;SDS011;34866;48.670;18.260;2022-08-21T19:43:06;2.28;;;0.88;;
49051;SDS011;34866;48.670;18.260;2022-08-21T19:45:56;1.67;;;0.70;;
49051;SDS011;34866;48.670;18.260;2022-08-21T19:48:52;1.10;;;0.68;;
